ADDS METAR Data INFO
IDs: Format: Raw Decoded Include TAF

Data at: 1930 UTC 19 Jul 2018

KMRC 191915Z AUTO 18006KT 10SM FEW046 32/20 A2993 RMK A01
KMRC 191855Z AUTO VRB05KT 10SM CLR 32/20 A2994 RMK A01
KMRC 191835Z AUTO 23004KT 10SM CLR 31/20 A2994 RMK A01
KMRC 191815Z AUTO VRB05KT 10SM CLR 31/20 A2995 RMK A01
KMRC 191755Z AUTO VRB03KT 10SM CLR 31/20 A2995 RMK A01
KMRC 191735Z AUTO 21006KT 10SM CLR 31/20 A2995 RMK A01
KMRC 191715Z AUTO VRB04KT 10SM CLR 30/20 A2995 RMK A01
KMRC 191655Z AUTO VRB05KT 10SM CLR 30/19 A2995 RMK A01
KMRC 191635Z AUTO 20007KT 9SM CLR 30/20 A2996 RMK A01
KMRC 191615Z AUTO VRB06KT 9SM CLR 30/20 A2997 RMK A01
KMRC 191555Z AUTO 22008KT 10SM CLR 29/20 A2996 RMK A01
KMRC 191535Z AUTO VRB04KT 10SM CLR 29/21 A2997 RMK A01
KMRC 191515Z AUTO VRB03KT 10SM CLR 29/21 A2997 RMK A01
KMRC 191455Z AUTO 00000KT 10SM CLR 28/21 A2998 RMK A01
KMRC 191435Z AUTO 00000KT 10SM CLR 27/21 A2998 RMK A01
KMRC 191415Z AUTO 15003KT 10SM CLR 27/22 A2998 RMK A01
KMRC 191355Z AUTO 15003KT 10SM CLR 26/23 A2998 RMK A01
KMRC 191335Z AUTO 14005KT 10SM CLR 25/24 A2998 RMK A01
KMRC 191315Z AUTO 00000KT 10SM CLR 23/23 A2998 RMK A01
KMRC 191255Z AUTO 00000KT 10SM CLR 22/22 A2998 RMK A01
KMRC 191235Z AUTO 00000KT 9SM CLR 22/22 A2997 RMK A01
KMRC 191215Z AUTO 00000KT 8SM CLR 21/21 A2998 RMK A01
KMRC 191155Z AUTO 00000KT 9SM CLR 20/20 A2997 RMK A01
KMRC 191135Z AUTO 00000KT 9SM CLR 20/20 A2997 RMK A01
KMRC 191115Z AUTO 00000KT 8SM CLR 19/19 A2997 RMK A01
KMRC 191055Z AUTO 00000KT 8SM CLR 19/19 A2996 RMK A01
KMRC 191035Z AUTO 00000KT 8SM CLR 20/20 A2995 RMK A01
KMRC 191015Z AUTO 00000KT 7SM FEW002 20/20 A2995 RMK A01
KMRC 190955Z AUTO 00000KT 7SM FEW002 20/20 A2995 RMK A01
KMRC 190935Z AUTO 00000KT 6SM BR FEW002 20/20 A2994 RMK A01
KMRC 190915Z AUTO 00000KT 9SM CLR 20/20 A2994 RMK A01
KMRC 190855Z AUTO 00000KT 10SM CLR 20/20 A2994 RMK A01
KMRC 190835Z AUTO 00000KT 10SM CLR 20/20 A2994 RMK A01
KMRC 190815Z AUTO 00000KT 8SM CLR 20/20 A2994 RMK A01
KMRC 190755Z AUTO 00000KT 9SM CLR 21/21 A2994 RMK A01
KMRC 190735Z AUTO 00000KT 10SM CLR 21/21 A2995 RMK A01
KMRC 190715Z AUTO 00000KT 10SM CLR 21/21 A2995 RMK A01
KMRC 190655Z AUTO 00000KT 10SM CLR 21/21 A2995 RMK A01
KMRC 190635Z AUTO 00000KT 10SM CLR 22/22 A2996 RMK A01
KMRC 190615Z AUTO 00000KT 10SM CLR 22/22 A2996 RMK A01
KMRC 190555Z AUTO 00000KT 10SM CLR 22/22 A2996 RMK A01
KMRC 190535Z AUTO 00000KT 10SM CLR 22/22 A2997 RMK A01
KMRC 190515Z AUTO 00000KT 10SM CLR 23/23 A2997 RMK A01
KMRC 190455Z AUTO 00000KT 10SM CLR 23/23 A2998 RMK A01
KMRC 190435Z AUTO 00000KT 10SM CLR 24/24 A2998 RMK A01
KMRC 190415Z AUTO 00000KT 10SM CLR 24/24 A2998 RMK A01
KMRC 190355Z AUTO 00000KT 10SM CLR 24/24 A2997 RMK A01
KMRC 190335Z AUTO 00000KT 10SM CLR 24/24 A2997 RMK A01
KMRC 190315Z AUTO 00000KT 10SM CLR 24/24 A2997 RMK A01
KMRC 190255Z AUTO 00000KT 10SM CLR 24/22 A2997 RMK A01
KMRC 190235Z AUTO 00000KT 10SM CLR 25/22 A2996 RMK A01
KMRC 190215Z AUTO 00000KT 10SM CLR 25/21 A2995 RMK A01
KMRC 190155Z AUTO 00000KT 10SM CLR 25/21 A2994 RMK A01
KMRC 190135Z AUTO 00000KT 10SM CLR 26/20 A2994 RMK A01
KMRC 190115Z AUTO 04003KT 10SM CLR 27/19 A2993 RMK A01
KMRC 190055Z AUTO 01004KT 10SM CLR 28/19 A2993 RMK A01
KMRC 190035Z AUTO 36004KT 10SM CLR 29/20 A2993 RMK A01
KMRC 190015Z AUTO 01003KT 10SM CLR 29/19 A2993 RMK A01
KMRC 182355Z AUTO 01005KT 10SM CLR 30/18 A2993 RMK A01
KMRC 182335Z AUTO 36005KT 10SM CLR 31/18 A2992 RMK A01
KMRC 182315Z AUTO 35005KT 10SM CLR 31/18 A2993 RMK A01
KMRC 182255Z AUTO 36006KT 10SM CLR 31/19 A2994 RMK A01
KMRC 182235Z AUTO 35004KT 10SM CLR 31/19 A2994 RMK A01
KMRC 182215Z AUTO 35004KT 10SM CLR 31/19 A2994 RMK A01
KMRC 182155Z AUTO VRB05KT 10SM CLR 31/19 A2994 RMK A01
KMRC 182135Z AUTO 36005KT 10SM CLR 31/19 A2994 RMK A01
KMRC 182115Z AUTO VRB06KT 10SM CLR 32/17 A2994 RMK A01
KMRC 182055Z AUTO 01006KT 10SM CLR 32/17 A2994 RMK A01
KMRC 182035Z AUTO 35007KT 10SM CLR 32/18 A2995 RMK A01
KMRC 182015Z AUTO 34005KT 10SM CLR 32/18 A2996 RMK A01
KMRC 181955Z AUTO VRB05KT 10SM CLR 32/18 A2997 RMK A01
KMRC 181935Z AUTO 33005KT 10SM CLR 32/17 A2998 RMK A01
KMRC 181915Z AUTO 06006KT 10SM FEW048 32/19 A2998 RMK A01
KMRC 181855Z AUTO VRB05KT 10SM CLR 32/19 A2999 RMK A01
KMRC 181835Z AUTO VRB04KT 10SM CLR 32/19 A2999 RMK A01
KMRC 181815Z AUTO 05005KT 10SM CLR 31/19 A2999 RMK A01
KMRC 181755Z AUTO 35004KT 10SM CLR 31/20 A2999 RMK A01
KMRC 181735Z AUTO 00000KT 10SM CLR 31/20 A3000 RMK A01
KMRC 181715Z AUTO 00000KT 10SM CLR 30/19 A3000 RMK A01
KMRC 181655Z AUTO 00000KT 10SM CLR 31/20 A3001 RMK A01
KMRC 181635Z AUTO 00000KT 10SM CLR 30/20 A3001 RMK A01
KMRC 181615Z AUTO VRB05KT 10SM CLR 30/20 A3002 RMK A01
KMRC 181555Z AUTO 00000KT 10SM CLR 29/20 A3002 RMK A01
KMRC 181535Z AUTO 00000KT 10SM CLR 29/20 A3002 RMK A01
KMRC 181515Z AUTO 00000KT 10SM CLR 29/21 A3002 RMK A01
KMRC 181455Z AUTO 05004KT 10SM CLR 28/21 A3002 RMK A01
KMRC 181435Z AUTO 07005KT 10SM CLR 28/20 A3002 RMK A01
KMRC 181415Z AUTO 06005KT 10SM CLR 27/20 A3001 RMK A01
KMRC 181355Z AUTO 05006KT 10SM CLR 27/20 A3003 RMK A01
KMRC 181335Z AUTO 08004KT 10SM CLR 26/21 A3003 RMK A01
KMRC 181315Z AUTO 08005KT 10SM CLR 26/22 A3003 RMK A01
KMRC 181255Z AUTO 07003KT 10SM CLR 25/23 A3002 RMK A01
KMRC 181235Z AUTO 00000KT 10SM CLR 25/24 A3002 RMK A01
KMRC 181215Z AUTO 00000KT 10SM CLR 24/24 A3002 RMK A01
KMRC 181155Z AUTO 00000KT 8SM CLR 23/23 A3001 RMK A01
KMRC 181135Z AUTO 00000KT 7SM CLR 23/23 A3001 RMK A01
KMRC 181115Z AUTO 00000KT 8SM CLR 23/23 A3000 RMK A01
KMRC 181055Z AUTO 00000KT 9SM CLR 23/23 A3000 RMK A01
KMRC 181035Z AUTO 00000KT 8SM CLR 23/23 A2999 RMK A01
KMRC 181015Z AUTO 00000KT 8SM CLR 23/23 A2999 RMK A01
KMRC 180955Z AUTO 00000KT 10SM CLR 23/23 A2998 RMK A01
KMRC 180935Z AUTO 00000KT 9SM CLR 23/23 A2998 RMK A01
KMRC 180915Z AUTO 33003KT 7SM CLR 23/23 A2997 RMK A01
KMRC 180855Z AUTO 00000KT 9SM CLR 24/24 A2998 RMK A01
KMRC 180835Z AUTO 00000KT 7SM FEW042 24/24 A2998 RMK A01
KMRC 180815Z AUTO 00000KT 6SM BR CLR 24/24 A2998 RMK A01
KMRC 180755Z AUTO 00000KT 5SM BR FEW045 24/24 A2998 RMK A01
KMRC 180735Z AUTO 00000KT 5SM BR BKN046 24/24 A2998 RMK A01